createdAt,value
2018-09-29T08:15:41.111Z,1004
2018-09-29T08:18:41.230Z,1005
2018-09-29T08:21:41.108Z,1007
2018-09-29T08:24:41.123Z,1009
2018-09-29T08:27:41.120Z,1011
2018-09-29T08:30:41.160Z,1014
2018-09-29T08:33:41.142Z,1017
2018-09-29T08:36:41.137Z,1020
2018-09-29T08:39:41.151Z,1022
2018-09-29T08:42:41.136Z,1024
2018-09-29T08:45:41.205Z,1025
2018-09-29T08:48:41.172Z,1025
2018-09-29T08:51:41.299Z,1025
2018-09-29T08:54:41.205Z,1023
2018-09-29T08:57:41.215Z,1022
2018-09-29T09:00:41.220Z,1020
2018-09-29T09:03:41.227Z,1019
2018-09-29T09:06:41.223Z,1017
2018-09-29T09:09:41.249Z,1016
2018-09-29T09:12:41.242Z,1015
2018-09-29T09:15:41.278Z,1014
2018-09-29T09:18:41.269Z,1012
2018-09-29T09:21:41.277Z,1010
2018-09-29T09:24:41.419Z,1009
2018-09-29T09:27:41.750Z,1007
2018-09-29T09:30:41.434Z,1006
2018-09-29T09:33:41.435Z,1005
2018-09-29T09:36:41.358Z,1003
2018-09-29T09:39:41.375Z,1002
2018-09-29T09:42:41.359Z,1001
2018-09-29T09:45:41.829Z,1000
2018-09-29T09:48:41.508Z,999
2018-09-29T09:51:41.423Z,998
2018-09-29T09:57:41.429Z,997
2018-09-29T10:00:41.881Z,996
2018-09-29T10:03:41.454Z,996
2018-09-29T10:06:41.602Z,995
2018-09-29T10:09:41.504Z,995
2018-09-29T10:12:41.624Z,995
2018-09-29T10:15:41.542Z,995
2018-09-29T10:18:41.549Z,994
2018-09-29T10:21:41.650Z,994
2018-09-29T10:24:41.588Z,994
2018-09-29T10:27:41.668Z,994
2018-09-29T10:30:41.738Z,994
2018-09-29T10:33:41.626Z,994
2018-09-29T10:36:41.659Z,994
2018-09-29T10:39:41.665Z,994
2018-09-29T10:42:41.678Z,993
2018-09-29T10:45:41.827Z,993
2018-09-29T10:48:41.719Z,993
2018-09-29T10:51:41.837Z,993
2018-09-29T10:54:41.761Z,993
2018-09-29T10:57:41.772Z,993
2018-09-29T11:00:41.797Z,993
2018-09-29T11:03:41.816Z,993
2018-09-29T11:06:41.839Z,993
2018-09-29T11:09:41.873Z,992
2018-09-29T11:12:42.193Z,992
2018-09-29T11:15:43.147Z,992
2018-09-29T11:18:41.917Z,992
2018-09-29T11:24:41.958Z,992
2018-09-29T11:27:42.127Z,992
2018-09-29T11:30:41.991Z,992
2018-09-29T11:33:42.063Z,992
2018-09-29T11:36:42.039Z,992
2018-09-29T11:39:42.066Z,993
2018-09-29T11:42:42.084Z,993
2018-09-29T11:45:42.090Z,993
2018-09-29T11:48:42.562Z,993
2018-09-29T11:51:42.163Z,993
2018-09-29T11:54:42.170Z,993
2018-09-29T11:57:42.168Z,993
2018-09-29T12:00:42.212Z,993
2018-09-29T12:03:42.244Z,993
2018-09-29T12:06:42.259Z,993
2018-09-29T12:09:42.388Z,993
2018-09-29T12:12:42.407Z,993
2018-09-29T12:15:42.444Z,993
2018-09-29T12:18:42.363Z,993
2018-09-29T12:21:42.380Z,993
2018-09-29T12:24:42.380Z,993
2018-09-29T12:27:42.439Z,993
2018-09-29T12:30:42.440Z,993
2018-09-29T12:33:42.477Z,993
2018-09-29T12:36:42.511Z,993
2018-09-29T12:39:42.649Z,992
2018-09-29T12:42:42.638Z,992
2018-09-29T12:45:42.569Z,992
2018-09-29T12:48:42.573Z,992
2018-09-29T12:51:42.620Z,992
2018-09-29T12:54:42.634Z,992
2018-09-29T12:57:42.672Z,992
2018-09-29T13:00:42.670Z,992
2018-09-29T13:03:43.143Z,992
2018-09-29T13:06:42.849Z,992
2018-09-29T13:09:42.754Z,992
2018-09-29T13:12:42.784Z,992
2018-09-29T13:15:42.817Z,992
2018-09-29T13:18:42.923Z,992
2018-09-29T13:21:42.979Z,992
2018-09-29T13:24:42.876Z,992
2018-09-29T13:27:42.911Z,992
2018-09-29T13:30:42.910Z,992
2018-09-29T13:33:42.953Z,992
2018-09-29T13:36:42.973Z,992
2018-09-29T13:39:42.996Z,992
2018-09-29T13:42:43.114Z,992
2018-09-29T13:45:43.488Z,992
2018-09-29T13:48:43.052Z,992
2018-09-29T13:51:43.100Z,992
2018-09-29T13:54:43.086Z,992
2018-09-29T13:57:43.107Z,992
2018-09-29T14:00:43.134Z,992
2018-09-29T14:03:43.182Z,992
2018-09-29T14:09:43.208Z,992
2018-09-29T14:12:43.458Z,992
2018-09-29T14:15:43.223Z,991
2018-09-29T14:18:43.261Z,991
2018-09-29T14:21:43.300Z,991
2018-09-29T14:24:43.422Z,991
2018-09-29T14:27:43.316Z,991
2018-09-29T14:30:43.446Z,991
2018-09-29T14:33:43.371Z,991
2018-09-29T14:36:43.371Z,991
2018-09-29T14:39:43.415Z,991
2018-09-29T14:42:43.402Z,991
2018-09-29T14:45:43.446Z,991
2018-09-29T14:48:43.462Z,991
2018-09-29T14:51:43.485Z,991
2018-09-29T14:54:43.687Z,990
2018-09-29T14:57:43.662Z,990
2018-09-29T15:00:43.489Z,990
2018-09-29T15:03:43.492Z,990
2018-09-29T15:06:43.491Z,990
2018-09-29T15:09:43.519Z,990
2018-09-29T15:12:43.925Z,990
2018-09-29T15:42:43.574Z,990
2018-09-29T15:45:43.493Z,990
2018-09-29T15:48:43.588Z,990
2018-09-29T15:51:43.506Z,990
2018-09-29T15:54:43.600Z,990
2018-09-29T15:57:43.529Z,990
2018-09-29T16:00:43.633Z,990
2018-09-29T16:03:43.564Z,990
2018-09-29T16:06:43.527Z,990
2018-09-29T16:09:43.564Z,990
2018-09-29T16:12:43.513Z,990
2018-09-29T16:15:43.613Z,990
2018-09-29T16:18:43.608Z,990
2018-09-29T16:21:43.580Z,990
2018-09-29T16:48:43.508Z,990
2018-09-29T16:51:46.478Z,990
2018-09-29T16:54:43.495Z,990
2018-09-29T16:57:43.480Z,990
2018-09-29T17:00:43.485Z,990
2018-09-29T17:03:43.639Z,990
2018-09-29T17:06:43.485Z,990
2018-09-29T17:09:43.485Z,990
2018-09-29T17:12:43.477Z,990
2018-09-29T17:15:43.512Z,990
2018-09-29T17:18:43.465Z,990
2018-09-29T17:21:43.458Z,990
2018-09-29T17:24:43.442Z,990
2018-09-29T17:27:43.432Z,990
2018-09-29T17:30:43.453Z,990
2018-09-29T17:33:43.433Z,990
